Time;durP1;ratioP1;P1;durP2;ratioP2;P2;SDS_P1;SDS_P2;PMS_P1;PMS_P2;Temp;Humidity;BMP_temperature;BMP_pressure;BME280_temperature;BME280_humidity;BME280_pressure;Samples;Min_cycle;Max_cycle;Signal;HPM_P1;HPM_P2
2023/08/24 00:02:07;;;;;;;0.35;0.35;;;;;;;;;;5064147;28;20397;-63
2023/08/24 00:04:33;;;;;;;0.50;0.50;;;;;;;;;;5065044;28;20040;-63
2023/08/24 00:07:00;;;;;;;0.60;0.60;;;;;;;;;;5065007;28;20533;-63
2023/08/24 00:09:26;;;;;;;0.50;0.50;;;;;;;;;;5064256;28;20423;-63
2023/08/24 00:11:53;;;;;;;0.85;0.50;;;;;;;;;;5065136;28;20407;-63
2023/08/24 00:14:19;;;;;;;0.75;0.40;;;;;;;;;;5064904;28;20032;-63
2023/08/24 00:16:45;;;;;;;0.60;0.55;;;;;;;;;;5063187;28;20051;-63
2023/08/24 00:19:11;;;;;;;0.47;0.47;;;;;;;;;;5064335;28;20469;-63
2023/08/24 00:21:37;;;;;;;0.75;0.70;;;;;;;;;;5064339;28;20632;-63
2023/08/24 00:24:03;;;;;;;1.10;0.40;;;;;;;;;;5063674;28;20052;-63
2023/08/24 00:26:29;;;;;;;0.40;0.40;;;;;;;;;;5064886;28;20043;-63
2023/08/24 00:28:55;;;;;;;0.40;0.40;;;;;;;;;;5063933;28;20127;-63
2023/08/24 00:31:21;;;;;;;0.40;0.40;;;;;;;;;;5064192;28;20540;-63
2023/08/24 00:33:47;;;;;;;0.45;0.45;;;;;;;;;;5064426;28;20640;-63
2023/08/24 00:36:13;;;;;;;0.40;0.40;;;;;;;;;;5063450;28;20041;-63
2023/08/24 00:38:39;;;;;;;0.32;0.32;;;;;;;;;;5064158;28;20055;-63
2023/08/24 00:41:05;;;;;;;0.47;0.30;;;;;;;;;;5063973;28;20535;-63
2023/08/24 00:43:32;;;;;;;0.20;0.20;;;;;;;;;;5064423;28;20516;-63
2023/08/24 00:46:00;;;;;;;0.40;0.40;;;;;;;;;;5064527;28;20934;-63
2023/08/24 00:48:28;;;;;;;0.30;0.30;;;;;;;;;;5064524;28;20412;-63
2023/08/24 00:50:59;;;;;;;0.30;0.30;;;;;;;;;;5056075;28;20046;-63
2023/08/24 00:53:26;;;;;;;0.20;0.20;;;;;;;;;;5063690;28;20619;-63
2023/08/24 00:55:53;;;;;;;0.30;0.30;;;;;;;;;;5063965;28;20884;-63
2023/08/24 00:58:19;;;;;;;0.30;0.30;;;;;;;;;;5063782;28;20037;-63
2023/08/24 01:00:45;;;;;;;0.30;0.30;;;;;;;;;;5064165;28;20045;-63
2023/08/24 01:03:11;;;;;;;0.25;0.20;;;;;;;;;;5064189;28;20498;-63
2023/08/24 01:05:37;;;;;;;0.25;0.25;;;;;;;;;;5063860;28;20042;-63
2023/08/24 01:08:03;;;;;;;0.50;0.50;;;;;;;;;;5064076;28;20068;-63
2023/08/24 01:10:35;;;;;;;0.30;0.30;;;;;;;;;;5064628;28;20033;-63
2023/08/24 01:13:08;;;;;;;0.20;0.20;;;;;;;;;;5064035;28;20227;-63
2023/08/24 01:15:40;;;;;;;0.20;0.20;;;;;;;;;;5063983;28;20091;-63
2023/08/24 01:18:06;;;;;;;;;;;;;;;;;;5064732;28;20037;-63
2023/08/24 01:20:33;;;;;;;0.30;0.30;;;;;;;;;;5046638;28;19931;-63
2023/08/24 01:23:18;;;;;;;0.95;0.40;;;;;;;;;;5064441;28;20036;-63
2023/08/24 01:25:54;;;;;;;0.40;0.40;;;;;;;;;;5057356;28;20032;-63
2023/08/24 01:28:21;;;;;;;0.30;0.30;;;;;;;;;;5065294;28;20083;-63
2023/08/24 01:30:48;;;;;;;0.20;0.20;;;;;;;;;;5068471;28;20040;-63
2023/08/24 01:33:14;;;;;;;0.28;0.28;;;;;;;;;;5066843;28;20048;-63
2023/08/24 01:35:40;;;;;;;0.32;0.32;;;;;;;;;;5067845;28;20036;-63
2023/08/24 01:38:06;;;;;;;0.30;0.30;;;;;;;;;;5067981;28;20041;-63
2023/08/24 01:40:41;;;;;;;0.30;0.30;;;;;;;;;;5067800;28;20048;-63
2023/08/24 01:43:08;;;;;;;0.50;0.35;;;;;;;;;;5067684;28;20052;-63
2023/08/24 01:45:34;;;;;;;0.50;0.50;;;;;;;;;;5067905;28;20504;-63
2023/08/24 01:48:02;;;;;;;0.40;0.40;;;;;;;;;;5067917;28;20052;-63
2023/08/24 01:50:29;;;;;;;0.25;0.25;;;;;;;;;;5068344;28;20044;-63
2023/08/24 01:52:55;;;;;;;0.55;0.32;;;;;;;;;;5067939;28;20106;-63
2023/08/24 01:55:21;;;;;;;0.40;0.40;;;;;;;;;;5067092;28;20060;-63
2023/08/24 01:57:48;;;;;;;0.20;0.20;;;;;;;;;;5068033;28;20052;-63
2023/08/24 02:00:15;;;;;;;0.60;0.60;;;;;;;;;;5067343;28;20408;-62
2023/08/24 02:02:42;;;;;;;0.38;0.38;;;;;;;;;;5066807;28;20041;-63
2023/08/24 02:05:08;;;;;;;0.40;0.40;;;;;;;;;;5067015;28;20043;-63
2023/08/24 02:07:34;;;;;;;0.60;0.60;;;;;;;;;;5066925;28;20101;-63
2023/08/24 02:10:00;;;;;;;0.68;0.68;;;;;;;;;;5067844;28;20090;-63
2023/08/24 02:12:26;;;;;;;0.50;0.50;;;;;;;;;;5067320;28;20500;-63
2023/08/24 02:14:52;;;;;;;0.35;0.35;;;;;;;;;;5066609;28;20043;-63
2023/08/24 02:17:18;;;;;;;0.63;0.63;;;;;;;;;;5066884;28;20048;-63
2023/08/24 02:19:44;;;;;;;0.50;0.50;;;;;;;;;;5066988;28;20045;-63
2023/08/24 02:22:10;;;;;;;0.60;0.60;;;;;;;;;;5064456;28;20044;-63
2023/08/24 02:24:36;;;;;;;0.30;0.30;;;;;;;;;;5067364;28;20115;-63
2023/08/24 02:27:03;;;;;;;0.60;0.60;;;;;;;;;;5067365;28;20153;-63
2023/08/24 02:29:30;;;;;;;0.82;0.63;;;;;;;;;;5067482;28;20455;-63
2023/08/24 02:31:56;;;;;;;0.65;0.65;;;;;;;;;;5067181;28;20102;-63
2023/08/24 02:34:22;;;;;;;0.60;0.60;;;;;;;;;;5066535;28;20040;-63
2023/08/24 02:36:48;;;;;;;0.90;0.70;;;;;;;;;;5066033;28;20207;-63
2023/08/24 02:39:14;;;;;;;1.08;0.82;;;;;;;;;;5066328;28;20047;-63
2023/08/24 02:41:40;;;;;;;0.63;0.63;;;;;;;;;;5066239;28;20036;-63
2023/08/24 02:44:06;;;;;;;0.40;0.30;;;;;;;;;;5066063;28;20108;-63
2023/08/24 02:46:32;;;;;;;0.60;0.50;;;;;;;;;;5066964;28;20519;-63
2023/08/24 02:48:58;;;;;;;0.63;0.63;;;;;;;;;;5067242;28;20049;-63
2023/08/24 02:51:25;;;;;;;0.40;0.40;;;;;;;;;;5065842;28;20036;-63
2023/08/24 02:53:51;;;;;;;1.55;0.90;;;;;;;;;;5066659;28;20049;-63
2023/08/24 02:56:17;;;;;;;0.75;0.70;;;;;;;;;;5066336;28;20048;-63
2023/08/24 02:58:43;;;;;;;0.50;0.50;;;;;;;;;;5066115;28;20413;-63
2023/08/24 03:01:09;;;;;;;0.50;0.50;;;;;;;;;;5066140;28;20055;-63
2023/08/24 03:03:35;;;;;;;0.45;0.45;;;;;;;;;;5066058;28;20123;-63
2023/08/24 03:06:03;;;;;;;0.38;0.38;;;;;;;;;;5065714;28;20043;-63
2023/08/24 03:08:29;;;;;;;0.40;0.40;;;;;;;;;;5067022;28;20123;-63
2023/08/24 03:10:55;;;;;;;0.57;0.40;;;;;;;;;;5065451;28;20045;-63
2023/08/24 03:13:21;;;;;;;1.05;0.50;;;;;;;;;;5065973;28;20044;-63
2023/08/24 03:15:48;;;;;;;0.50;0.45;;;;;;;;;;5065941;28;20613;-63
2023/08/24 03:18:14;;;;;;;0.77;0.52;;;;;;;;;;5065143;28;20036;-63
2023/08/24 03:20:40;;;;;;;0.45;0.45;;;;;;;;;;5065806;28;20542;-63
2023/08/24 03:23:06;;;;;;;0.30;0.30;;;;;;;;;;5065612;28;20098;-63
2023/08/24 03:25:37;;;;;;;0.43;0.43;;;;;;;;;;5066342;28;20070;-63
2023/08/24 03:28:03;;;;;;;0.40;0.40;;;;;;;;;;5066116;28;20052;-63
2023/08/24 03:30:29;;;;;;;0.60;0.60;;;;;;;;;;5066681;28;20041;-63
2023/08/24 03:32:55;;;;;;;0.50;0.50;;;;;;;;;;5065758;28;20131;-63
2023/08/24 03:35:22;;;;;;;0.85;0.60;;;;;;;;;;5065778;28;20052;-63
2023/08/24 03:37:48;;;;;;;0.55;0.55;;;;;;;;;;5065636;28;20051;-63
2023/08/24 03:40:14;;;;;;;0.40;0.40;;;;;;;;;;5065025;28;20040;-63
2023/08/24 03:42:40;;;;;;;0.43;0.43;;;;;;;;;;5065696;28;20044;-63
2023/08/24 03:45:06;;;;;;;0.50;0.50;;;;;;;;;;5065374;28;20045;-63
2023/08/24 03:47:33;;;;;;;0.52;0.52;;;;;;;;;;5065366;28;20049;-63
2023/08/24 03:49:59;;;;;;;0.65;0.65;;;;;;;;;;5066003;28;20050;-63
2023/08/24 03:52:25;;;;;;;0.90;0.50;;;;;;;;;;5065341;28;20052;-63
2023/08/24 03:54:51;;;;;;;0.63;0.50;;;;;;;;;;5064497;28;20060;-63
2023/08/24 03:57:17;;;;;;;0.50;0.50;;;;;;;;;;5063435;28;20055;-63
2023/08/24 03:59:43;;;;;;;0.50;0.50;;;;;;;;;;5063660;28;20048;-63
2023/08/24 04:02:10;;;;;;;0.45;0.45;;;;;;;;;;5064180;28;20040;-63
2023/08/24 04:04:36;;;;;;;0.40;0.40;;;;;;;;;;5065542;28;20036;-63
2023/08/24 04:07:02;;;;;;;0.88;0.65;;;;;;;;;;5065017;28;20554;-63
2023/08/24 04:09:28;;;;;;;1.05;0.40;;;;;;;;;;5065409;28;20047;-63
2023/08/24 04:11:55;;;;;;;0.20;0.20;;;;;;;;;;5065320;28;20044;-63
2023/08/24 04:14:21;;;;;;;0.50;0.50;;;;;;;;;;5064168;28;20036;-63
2023/08/24 04:16:47;;;;;;;0.38;0.38;;;;;;;;;;5064857;28;20052;-63
2023/08/24 04:19:13;;;;;;;0.50;0.50;;;;;;;;;;5064740;28;20123;-63
2023/08/24 04:21:39;;;;;;;0.57;0.57;;;;;;;;;;5063295;28;20056;-63
2023/08/24 04:24:05;;;;;;;0.80;0.55;;;;;;;;;;5064760;28;20678;-63
2023/08/24 04:26:32;;;;;;;0.55;0.55;;;;;;;;;;5065209;28;20044;-63
2023/08/24 04:28:58;;;;;;;0.50;0.32;;;;;;;;;;5064420;28;20109;-63
2023/08/24 04:31:24;;;;;;;0.50;0.50;;;;;;;;;;5064368;28;20048;-63
2023/08/24 04:33:50;;;;;;;0.80;0.80;;;;;;;;;;5063519;28;20550;-63
2023/08/24 04:36:16;;;;;;;0.80;0.55;;;;;;;;;;5064169;28;20048;-63
2023/08/24 04:38:42;;;;;;;0.85;0.85;;;;;;;;;;5064442;28;20044;-63
2023/08/24 04:41:09;;;;;;;0.75;0.73;;;;;;;;;;5064375;28;20037;-63
2023/08/24 04:43:38;;;;;;;0.65;0.65;;;;;;;;;;5063760;28;20044;-63
2023/08/24 04:46:04;;;;;;;0.70;0.68;;;;;;;;;;5062809;28;20040;-63
2023/08/24 04:48:32;;;;;;;0.80;0.55;;;;;;;;;;5065327;28;20056;-63
2023/08/24 04:50:59;;;;;;;0.50;0.50;;;;;;;;;;5064127;28;20072;-63
2023/08/24 04:53:25;;;;;;;0.43;0.43;;;;;;;;;;5064298;28;20488;-63
2023/08/24 04:55:51;;;;;;;0.77;0.50;;;;;;;;;;5064133;28;20055;-63
2023/08/24 04:58:17;;;;;;;0.60;0.60;;;;;;;;;;5063446;28;20059;-63
2023/08/24 05:00:43;;;;;;;0.57;0.57;;;;;;;;;;5064088;28;20460;-63
2023/08/24 05:03:09;;;;;;;0.65;0.65;;;;;;;;;;5063393;28;20036;-63
2023/08/24 05:05:35;;;;;;;0.95;0.60;;;;;;;;;;5063644;28;20468;-63
2023/08/24 05:08:05;;;;;;;0.52;0.52;;;;;;;;;;5064427;28;20044;-63
2023/08/24 05:10:32;;;;;;;0.60;0.60;;;;;;;;;;5064633;28;20037;-63
2023/08/24 05:12:58;;;;;;;0.70;0.70;;;;;;;;;;5064859;28;20146;-63
2023/08/24 05:15:24;;;;;;;0.60;0.60;;;;;;;;;;5064437;28;20594;-63
2023/08/24 05:17:53;;;;;;;0.60;0.60;;;;;;;;;;5063593;28;20048;-63
2023/08/24 05:20:19;;;;;;;1.48;0.80;;;;;;;;;;5063648;28;20037;-63
2023/08/24 05:22:45;;;;;;;0.40;0.40;;;;;;;;;;5064001;28;20079;-63
2023/08/24 05:25:12;;;;;;;0.32;0.32;;;;;;;;;;5063233;28;20053;-63
2023/08/24 05:27:38;;;;;;;0.50;0.40;;;;;;;;;;5063977;28;20063;-63
2023/08/24 05:30:05;;;;;;;0.65;0.50;;;;;;;;;;5064083;28;20508;-63
2023/08/24 05:32:31;;;;;;;0.98;0.88;;;;;;;;;;5063958;28;20056;-63
2023/08/24 05:34:57;;;;;;;1.20;0.55;;;;;;;;;;5064058;28;20568;-63
2023/08/24 05:37:24;;;;;;;0.45;0.45;;;;;;;;;;5063281;28;20048;-63
2023/08/24 05:39:50;;;;;;;1.35;0.60;;;;;;;;;;5061761;28;20051;-63
2023/08/24 05:42:16;;;;;;;0.45;0.40;;;;;;;;;;5063692;28;20037;-63
2023/08/24 05:44:42;;;;;;;0.50;0.50;;;;;;;;;;5063423;28;20040;-63
2023/08/24 05:47:08;;;;;;;0.32;0.28;;;;;;;;;;5062735;28;20052;-63
2023/08/24 05:49:34;;;;;;;0.60;0.60;;;;;;;;;;5064362;28;20047;-63
2023/08/24 05:52:00;;;;;;;0.30;0.30;;;;;;;;;;5063022;28;20048;-63
2023/08/24 05:54:26;;;;;;;0.32;0.30;;;;;;;;;;5063103;28;20121;-63
2023/08/24 05:56:52;;;;;;;0.40;0.40;;;;;;;;;;5063541;28;20595;-63
2023/08/24 05:59:18;;;;;;;0.50;0.30;;;;;;;;;;5063324;28;20041;-63
2023/08/24 06:01:44;;;;;;;0.35;0.30;;;;;;;;;;5063192;28;20036;-63
2023/08/24 06:04:11;;;;;;;0.50;0.40;;;;;;;;;;5063675;28;20063;-63
2023/08/24 06:06:37;;;;;;;0.45;0.40;;;;;;;;;;5063325;28;20078;-63
2023/08/24 06:09:06;;;;;;;0.85;0.75;;;;;;;;;;5063921;28;20147;-63
2023/08/24 06:11:33;;;;;;;0.40;0.40;;;;;;;;;;5063088;28;20071;-63
2023/08/24 06:13:59;;;;;;;0.63;0.60;;;;;;;;;;5061463;28;20044;-63
2023/08/24 06:16:25;;;;;;;0.55;0.52;;;;;;;;;;5065578;28;20570;-63
2023/08/24 06:18:51;;;;;;;0.80;0.45;;;;;;;;;;5066939;28;20032;-63
2023/08/24 06:21:20;;;;;;;0.57;0.50;;;;;;;;;;5057771;28;20041;-63
2023/08/24 06:23:47;;;;;;;0.77;0.65;;;;;;;;;;5066990;28;20400;-63
2023/08/24 06:26:13;;;;;;;0.70;0.70;;;;;;;;;;5066675;28;20102;-63
2023/08/24 06:28:40;;;;;;;0.50;0.32;;;;;;;;;;5066356;28;20044;-63
2023/08/24 06:31:07;;;;;;;0.50;0.50;;;;;;;;;;5066377;28;20052;-63
2023/08/24 06:33:34;;;;;;;0.68;0.68;;;;;;;;;;5058979;28;20090;-63
2023/08/24 06:36:00;;;;;;;0.95;0.80;;;;;;;;;;5066214;28;20135;-63
2023/08/24 06:38:26;;;;;;;1.20;1.10;;;;;;;;;;5066397;28;20454;-63
2023/08/24 06:40:52;;;;;;;4.18;3.25;;;;;;;;;;5066575;28;20066;-63
2023/08/24 06:43:18;;;;;;;2.53;2.10;;;;;;;;;;5065789;28;20040;-63
2023/08/24 06:45:44;;;;;;;2.65;2.45;;;;;;;;;;5058355;28;20547;-63
2023/08/24 06:48:11;;;;;;;3.10;1.60;;;;;;;;;;5066513;28;20065;-63
2023/08/24 06:50:37;;;;;;;1.45;0.77;;;;;;;;;;5066060;28;20032;-63
2023/08/24 06:53:04;;;;;;;2.95;1.35;;;;;;;;;;5066435;28;20076;-63
2023/08/24 06:55:30;;;;;;;1.42;0.93;;;;;;;;;;5066722;28;20057;-63
2023/08/24 06:57:56;;;;;;;1.90;1.48;;;;;;;;;;5065629;28;20053;-63
2023/08/24 07:00:22;;;;;;;1.20;1.10;;;;;;;;;;5065868;28;20032;-63
2023/08/24 07:02:48;;;;;;;1.10;0.98;;;;;;;;;;5065659;28;20044;-63
2023/08/24 07:05:18;;;;;;;0.60;0.60;;;;;;;;;;5066021;28;20066;-63
2023/08/24 07:07:44;;;;;;;1.00;0.93;;;;;;;;;;5066294;28;20044;-63
2023/08/24 07:10:10;;;;;;;1.70;1.20;;;;;;;;;;5065539;28;20045;-63
2023/08/24 07:12:37;;;;;;;1.30;0.70;;;;;;;;;;5066107;28;20048;-63
2023/08/24 07:15:04;;;;;;;1.70;0.70;;;;;;;;;;5066092;28;20041;-63
2023/08/24 07:17:30;;;;;;;2.25;0.70;;;;;;;;;;5065619;28;20140;-63
2023/08/24 07:19:56;;;;;;;1.48;0.82;;;;;;;;;;5065924;28;20111;-63
2023/08/24 07:22:22;;;;;;;1.75;1.25;;;;;;;;;;5065876;28;20499;-63
2023/08/24 07:24:52;;;;;;;1.08;0.80;;;;;;;;;;5065811;28;20044;-63
2023/08/24 07:27:18;;;;;;;1.85;0.70;;;;;;;;;;5063822;28;20083;-63
2023/08/24 07:29:44;;;;;;;1.15;0.77;;;;;;;;;;5064572;28;20032;-63
2023/08/24 07:32:10;;;;;;;3.03;1.20;;;;;;;;;;5064779;28;20037;-63
2023/08/24 07:34:36;;;;;;;1.30;1.13;;;;;;;;;;5065683;28;20040;-63
2023/08/24 07:37:02;;;;;;;4.55;0.90;;;;;;;;;;5064643;28;20408;-63
2023/08/24 07:39:28;;;;;;;0.90;0.73;;;;;;;;;;5065008;28;20045;-63
2023/08/24 07:41:54;;;;;;;0.50;0.50;;;;;;;;;;5065610;28;20033;-63
2023/08/24 07:44:21;;;;;;;2.35;1.00;;;;;;;;;;5065205;28;20047;-63
2023/08/24 07:46:49;;;;;;;1.75;0.50;;;;;;;;;;5064919;28;20048;-63
2023/08/24 07:49:15;;;;;;;0.70;0.60;;;;;;;;;;5065033;28;20186;-63
2023/08/24 07:51:47;;;;;;;1.88;0.60;;;;;;;;;;5065103;28;20040;-63
2023/08/24 07:54:13;;;;;;;1.55;0.70;;;;;;;;;;5064215;28;20048;-63
2023/08/24 07:56:39;;;;;;;1.35;0.60;;;;;;;;;;5065357;28;20048;-63
2023/08/24 07:59:05;;;;;;;0.77;0.60;;;;;;;;;;5064669;28;20049;-63
2023/08/24 08:01:31;;;;;;;1.88;0.93;;;;;;;;;;5064390;28;20039;-63
2023/08/24 08:03:57;;;;;;;1.45;1.27;;;;;;;;;;5064912;28;20047;-63
2023/08/24 08:06:24;;;;;;;0.70;0.70;;;;;;;;;;5064046;28;20833;-63
2023/08/24 08:08:51;;;;;;;0.55;0.50;;;;;;;;;;5065309;28;20115;-63
2023/08/24 08:11:17;;;;;;;1.00;0.55;;;;;;;;;;5064763;28;20045;-63
2023/08/24 08:13:44;;;;;;;2.33;0.65;;;;;;;;;;5064449;28;20063;-63
2023/08/24 08:16:10;;;;;;;1.95;1.10;;;;;;;;;;5064259;28;20543;-63
2023/08/24 08:18:36;;;;;;;2.78;1.23;;;;;;;;;;5065025;28;20047;-63
2023/08/24 08:21:10;;;;;;;2.60;1.45;;;;;;;;;;5064500;28;20123;-63
2023/08/24 08:23:36;;;;;;;6.30;1.77;;;;;;;;;;5064956;28;20068;-63
2023/08/24 08:26:02;;;;;;;3.42;1.70;;;;;;;;;;5064798;28;20122;-63
2023/08/24 08:28:28;;;;;;;2.58;1.65;;;;;;;;;;5064171;28;20124;-62
2023/08/24 08:30:54;;;;;;;2.80;1.60;;;;;;;;;;5064528;28;20143;-63
2023/08/24 08:33:21;;;;;;;6.78;2.20;;;;;;;;;;5064238;28;21025;-63
2023/08/24 08:35:47;;;;;;;6.18;2.08;;;;;;;;;;5063738;28;20049;-63
2023/08/24 08:38:13;;;;;;;1.40;1.30;;;;;;;;;;5063262;28;20055;-63
2023/08/24 08:40:41;;;;;;;3.35;1.70;;;;;;;;;;5064617;28;20040;-63
2023/08/24 08:43:07;;;;;;;4.78;1.50;;;;;;;;;;5063435;28;20053;-63
2023/08/24 08:45:33;;;;;;;1.52;1.15;;;;;;;;;;5063531;28;20085;-63
2023/08/24 08:48:00;;;;;;;3.03;1.60;;;;;;;;;;5064252;28;20093;-63
2023/08/24 08:50:26;;;;;;;4.40;2.40;;;;;;;;;;5063459;28;20119;-64
2023/08/24 08:52:52;;;;;;;1.63;1.52;;;;;;;;;;5064837;28;20036;-63
2023/08/24 08:55:19;;;;;;;1.75;1.20;;;;;;;;;;5063259;28;20091;-63
2023/08/24 08:57:49;;;;;;;4.43;1.85;;;;;;;;;;5064056;28;20131;-63
2023/08/24 09:00:17;;;;;;;3.03;1.73;;;;;;;;;;5063963;28;20075;-63
2023/08/24 09:02:45;;;;;;;1.60;1.50;;;;;;;;;;5064010;28;20056;-63
2023/08/24 09:05:11;;;;;;;1.55;1.20;;;;;;;;;;5063936;28;20606;-63
2023/08/24 09:07:39;;;;;;;1.60;1.50;;;;;;;;;;5064068;28;20044;-63
2023/08/24 09:10:07;;;;;;;3.40;1.95;;;;;;;;;;5063224;28;20047;-63
2023/08/24 09:12:33;;;;;;;2.92;1.88;;;;;;;;;;5064371;28;20140;-63
2023/08/24 09:14:59;;;;;;;2.60;1.50;;;;;;;;;;5064273;28;20036;-63
2023/08/24 09:17:26;;;;;;;5.10;2.60;;;;;;;;;;5063498;28;20579;-63
2023/08/24 09:19:54;;;;;;;2.28;1.73;;;;;;;;;;5064488;28;20080;-63
2023/08/24 09:22:20;;;;;;;2.50;1.80;;;;;;;;;;5055515;28;20048;-63
2023/08/24 09:24:54;;;;;;;4.43;2.17;;;;;;;;;;5063310;28;20080;-63
2023/08/24 09:27:20;;;;;;;2.15;1.88;;;;;;;;;;5063650;28;20037;-63
2023/08/24 09:29:52;;;;;;;3.00;2.80;;;;;;;;;;5064168;28;20032;-63
2023/08/24 09:32:22;;;;;;;3.15;1.73;;;;;;;;;;5063143;28;20040;-63
2023/08/24 09:34:48;;;;;;;1.67;1.30;;;;;;;;;;5063971;28;20036;-63
2023/08/24 09:37:15;;;;;;;2.33;1.98;;;;;;;;;;5063334;28;20048;-63
2023/08/24 09:39:42;;;;;;;2.33;2.13;;;;;;;;;;5062971;28;20037;-63
2023/08/24 09:42:08;;;;;;;1.55;1.35;;;;;;;;;;5063303;28;20732;-63
2023/08/24 09:44:34;;;;;;;1.38;1.27;;;;;;;;;;5064101;28;20063;-63
2023/08/24 09:47:00;;;;;;;1.23;1.08;;;;;;;;;;5063720;28;20052;-63
2023/08/24 09:49:26;;;;;;;1.23;1.13;;;;;;;;;;5064684;28;20103;-63
2023/08/24 09:51:59;;;;;;;1.50;1.05;;;;;;;;;;5067027;28;20040;-63
2023/08/24 09:54:28;;;;;;;1.45;0.90;;;;;;;;;;5067167;28;20137;-63
2023/08/24 09:56:58;;;;;;;1.92;1.30;;;;;;;;;;5059515;28;20037;-63
2023/08/24 09:59:27;;;;;;;1.80;1.42;;;;;;;;;;5066450;28;20872;-63
2023/08/24 10:01:56;;;;;;;2.38;1.60;;;;;;;;;;5067167;28;20131;-63
2023/08/24 10:04:23;;;;;;;4.95;2.58;;;;;;;;;;5066886;28;20048;-63
2023/08/24 10:06:52;;;;;;;2.30;2.03;;;;;;;;;;5066764;28;20045;-63
2023/08/24 10:09:32;;;;;;;2.20;1.80;;;;;;;;;;5066761;28;20043;-63
2023/08/24 10:12:00;;;;;;;1.95;1.63;;;;;;;;;;5067408;28;20249;-63
2023/08/24 10:14:31;;;;;;;2.25;1.52;;;;;;;;;;5066501;28;20531;-63
2023/08/24 10:16:58;;;;;;;3.35;2.20;;;;;;;;;;5066726;28;20071;-63
2023/08/24 10:19:24;;;;;;;2.28;1.80;;;;;;;;;;5066710;28;20043;-63
2023/08/24 10:21:52;;;;;;;1.17;1.10;;;;;;;;;;5066738;28;20037;-63
2023/08/24 10:24:20;;;;;;;2.15;1.20;;;;;;;;;;5066740;28;20032;-63
2023/08/24 10:26:47;;;;;;;3.00;1.90;;;;;;;;;;5066600;28;20660;-64
2023/08/24 10:29:13;;;;;;;4.68;2.10;;;;;;;;;;5066191;28;20488;-63
2023/08/24 10:31:41;;;;;;;1.42;1.27;;;;;;;;;;5065213;28;20040;-63
2023/08/24 10:34:08;;;;;;;1.50;1.40;;;;;;;;;;5065984;28;20044;-63
2023/08/24 10:36:34;;;;;;;1.85;1.75;;;;;;;;;;5059375;28;20056;-63
2023/08/24 10:39:07;;;;;;;3.55;3.08;;;;;;;;;;5067330;28;20452;-63
2023/08/24 10:41:49;;;;;;;2.42;2.22;;;;;;;;;;5048444;28;20175;-63
2023/08/24 10:44:25;;;;;;;3.28;1.60;;;;;;;;;;5066561;28;20051;-63
2023/08/24 10:47:10;;;;;;;1.70;1.40;;;;;;;;;;5059582;28;20040;-63
2023/08/24 10:49:36;;;;;;;2.50;1.30;;;;;;;;;;5064857;28;20115;-63
2023/08/24 10:52:22;;;;;;;3.00;1.58;;;;;;;;;;5066499;28;20040;-63
2023/08/24 10:54:52;;;;;;;1.98;0.90;;;;;;;;;;5065883;28;20050;-63
2023/08/24 10:57:19;;;;;;;0.80;0.80;;;;;;;;;;5066077;28;20057;-63
2023/08/24 10:59:45;;;;;;;0.68;0.60;;;;;;;;;;5066423;28;20083;-63
2023/08/24 11:02:19;;;;;;;0.70;0.70;;;;;;;;;;5064869;28;20140;-63
2023/08/24 11:05:05;;;;;;;0.80;0.70;;;;;;;;;;5066301;28;20043;-63
2023/08/24 11:07:31;;;;;;;1.20;0.95;;;;;;;;;;5066877;28;20047;-63
2023/08/24 11:09:57;;;;;;;0.60;0.60;;;;;;;;;;5065635;28;20033;-63
2023/08/24 11:12:23;;;;;;;0.60;0.57;;;;;;;;;;5065940;28;20120;-63
2023/08/24 11:14:58;;;;;;;2.50;1.23;;;;;;;;;;5066092;28;20048;-63
2023/08/24 11:17:24;;;;;;;1.67;0.70;;;;;;;;;;5064815;28;20153;-63
2023/08/24 11:19:51;;;;;;;1.60;1.48;;;;;;;;;;5066073;28;20045;-63
2023/08/24 11:22:18;;;;;;;1.30;1.20;;;;;;;;;;5065290;28;20037;-63
2023/08/24 11:24:44;;;;;;;0.75;0.68;;;;;;;;;;5065247;28;20051;-63
2023/08/24 11:27:10;;;;;;;0.70;0.70;;;;;;;;;;5065855;28;20405;-63
2023/08/24 11:29:36;;;;;;;0.70;0.70;;;;;;;;;;5066284;28;20055;-63
2023/08/24 11:32:03;;;;;;;0.75;0.40;;;;;;;;;;5063747;28;20051;-63
2023/08/24 11:34:29;;;;;;;0.40;0.40;;;;;;;;;;5066054;28;20041;-63
2023/08/24 11:36:56;;;;;;;0.30;0.30;;;;;;;;;;5065666;28;20055;-63
2023/08/24 11:39:23;;;;;;;0.60;0.60;;;;;;;;;;5063560;28;20443;-63
2023/08/24 11:42:00;;;;;;;1.00;0.80;;;;;;;;;;5066074;28;20071;-63
2023/08/24 11:44:26;;;;;;;1.13;0.75;;;;;;;;;;5064503;28;20048;-64
2023/08/24 11:46:52;;;;;;;0.57;0.57;;;;;;;;;;5063744;28;20123;-63
2023/08/24 11:49:18;;;;;;;0.50;0.50;;;;;;;;;;5063518;28;20051;-63
2023/08/24 11:51:44;;;;;;;0.52;0.52;;;;;;;;;;5064655;28;20045;-63
2023/08/24 11:54:10;;;;;;;0.40;0.40;;;;;;;;;;5064763;28;20718;-63
2023/08/24 11:56:43;;;;;;;0.60;0.60;;;;;;;;;;5065632;28;20052;-64
2023/08/24 11:59:15;;;;;;;1.38;0.90;;;;;;;;;;5064192;28;20040;-64
2023/08/24 12:01:42;;;;;;;0.70;0.70;;;;;;;;;;5064840;28;20560;-63
2023/08/24 12:04:08;;;;;;;0.45;0.45;;;;;;;;;;5064810;28;20129;-64
2023/08/24 12:06:34;;;;;;;0.90;0.50;;;;;;;;;;5064780;28;20051;-64
2023/08/24 12:09:02;;;;;;;1.20;0.80;;;;;;;;;;5064636;28;20609;-64
2023/08/24 12:11:28;;;;;;;0.52;0.52;;;;;;;;;;5065009;28;20412;-64
2023/08/24 12:13:55;;;;;;;0.50;0.50;;;;;;;;;;5063432;28;20377;-64
2023/08/24 12:16:22;;;;;;;0.57;0.57;;;;;;;;;;5064749;28;20075;-64
2023/08/24 12:19:04;;;;;;;0.80;0.80;;;;;;;;;;5065399;28;20043;-64
2023/08/24 12:21:29;;;;;;;;;;;;;;;;;;5058277;28;20052;-64
2023/08/24 12:24:06;;;;;;;1.30;0.90;;;;;;;;;;5065045;28;19994;-64
2023/08/24 12:26:32;;;;;;;0.70;0.70;;;;;;;;;;5063627;28;20044;-64
2023/08/24 12:29:02;;;;;;;1.40;0.88;;;;;;;;;;5064929;28;20044;-64
2023/08/24 12:31:29;;;;;;;0.60;0.60;;;;;;;;;;5056991;28;20044;-64
2023/08/24 12:34:03;;;;;;;0.70;0.60;;;;;;;;;;5064250;28;20448;-64
2023/08/24 12:36:29;;;;;;;0.40;0.32;;;;;;;;;;5064175;28;20114;-63
2023/08/24 12:38:55;;;;;;;1.25;0.47;;;;;;;;;;5064464;28;20045;-63
2023/08/24 12:41:21;;;;;;;0.40;0.40;;;;;;;;;;5063516;28;20044;-63
2023/08/24 12:43:47;;;;;;;0.40;0.40;;;;;;;;;;5064544;28;20523;-63
2023/08/24 12:46:13;;;;;;;0.60;0.60;;;;;;;;;;5064337;28;20502;-63
2023/08/24 12:48:39;;;;;;;0.45;0.45;;;;;;;;;;5063911;28;20044;-63
2023/08/24 12:51:05;;;;;;;0.65;0.65;;;;;;;;;;5064290;28;20351;-63
2023/08/24 12:53:32;;;;;;;1.10;1.00;;;;;;;;;;5062892;28;20098;-63
2023/08/24 12:55:58;;;;;;;0.75;0.73;;;;;;;;;;5062054;28;20048;-63
2023/08/24 12:58:25;;;;;;;0.80;0.80;;;;;;;;;;5064027;28;20045;-63
2023/08/24 13:00:51;;;;;;;0.85;0.77;;;;;;;;;;5063976;28;20562;-63
2023/08/24 13:03:17;;;;;;;0.57;0.57;;;;;;;;;;5063648;28;20090;-63
2023/08/24 13:05:43;;;;;;;0.82;0.82;;;;;;;;;;5064382;28;20036;-63
2023/08/24 13:08:09;;;;;;;0.88;0.88;;;;;;;;;;5063873;28;20044;-63
2023/08/24 13:10:36;;;;;;;0.80;0.80;;;;;;;;;;5064208;28;20366;-64
2023/08/24 13:13:03;;;;;;;0.88;0.88;;;;;;;;;;5064474;28;20048;-64
2023/08/24 13:15:29;;;;;;;0.80;0.80;;;;;;;;;;5064535;28;20036;-64
2023/08/24 13:17:56;;;;;;;1.00;0.80;;;;;;;;;;5062054;28;20431;-64
2023/08/24 13:20:22;;;;;;;0.60;0.60;;;;;;;;;;5063306;28;20080;-64
2023/08/24 13:22:48;;;;;;;0.73;0.73;;;;;;;;;;5063368;28;20050;-64
2023/08/24 13:25:14;;;;;;;0.90;0.90;;;;;;;;;;5066284;28;20478;-64
2023/08/24 13:27:40;;;;;;;1.50;0.95;;;;;;;;;;5067889;28;20052;-63
2023/08/24 13:30:07;;;;;;;1.17;0.60;;;;;;;;;;5067298;28;20141;-63
2023/08/24 13:32:34;;;;;;;0.98;0.70;;;;;;;;;;5068922;28;20048;-63
2023/08/24 13:35:01;;;;;;;1.02;0.65;;;;;;;;;;5068218;28;20385;-63
2023/08/24 13:37:27;;;;;;;0.70;0.70;;;;;;;;;;5067221;28;20076;-63
2023/08/24 13:39:53;;;;;;;1.10;1.00;;;;;;;;;;5067811;28;20087;-64
2023/08/24 13:42:19;;;;;;;1.35;1.25;;;;;;;;;;5067512;28;20045;-63
2023/08/24 13:44:46;;;;;;;0.95;0.77;;;;;;;;;;5067291;28;20131;-63
2023/08/24 13:47:12;;;;;;;0.73;0.73;;;;;;;;;;5067311;28;20052;-63
2023/08/24 13:49:38;;;;;;;0.80;0.80;;;;;;;;;;5067419;28;20348;-64
2023/08/24 13:52:04;;;;;;;0.65;0.65;;;;;;;;;;5067211;28;20083;-64
2023/08/24 13:54:30;;;;;;;0.70;0.70;;;;;;;;;;5067433;28;20143;-63
2023/08/24 13:56:58;;;;;;;6.68;3.45;;;;;;;;;;5067410;28;20095;-63
2023/08/24 13:59:24;;;;;;;2.42;2.30;;;;;;;;;;5066374;28;20102;-63
2023/08/24 14:01:50;;;;;;;2.45;1.40;;;;;;;;;;5067547;28;20414;-64
2023/08/24 14:04:16;;;;;;;0.77;0.77;;;;;;;;;;5067105;28;20564;-64
2023/08/24 14:06:42;;;;;;;0.80;0.80;;;;;;;;;;5066993;28;20049;-64
2023/08/24 14:09:08;;;;;;;0.93;0.65;;;;;;;;;;5067094;28;20040;-64
2023/08/24 14:11:34;;;;;;;0.70;0.70;;;;;;;;;;5068168;28;20032;-63
2023/08/24 14:14:00;;;;;;;0.70;0.70;;;;;;;;;;5066720;28;20053;-63
2023/08/24 14:16:27;;;;;;;0.75;0.75;;;;;;;;;;5067124;28;20051;-64
2023/08/24 14:18:53;;;;;;;0.77;0.77;;;;;;;;;;5066502;28;20052;-64
2023/08/24 14:21:23;;;;;;;0.90;0.88;;;;;;;;;;5066897;28;20040;-64
2023/08/24 14:23:50;;;;;;;0.57;0.57;;;;;;;;;;5067170;28;20446;-64
2023/08/24 14:26:16;;;;;;;0.50;0.50;;;;;;;;;;5065879;28;20044;-64
2023/08/24 14:28:55;;;;;;;0.43;0.43;;;;;;;;;;5067062;28;20105;-64
2023/08/24 14:31:24;;;;;;;0.55;0.55;;;;;;;;;;5066598;28;20323;-63
2023/08/24 14:33:51;;;;;;;1.02;0.88;;;;;;;;;;5066474;28;20043;-63
2023/08/24 14:36:18;;;;;;;0.40;0.40;;;;;;;;;;5065227;28;20036;-64
2023/08/24 14:38:44;;;;;;;0.50;0.50;;;;;;;;;;5065123;28;20095;-64
2023/08/24 14:41:11;;;;;;;0.50;0.50;;;;;;;;;;5065658;28;20045;-64
2023/08/24 14:43:37;;;;;;;0.45;0.45;;;;;;;;;;5066881;28;20040;-64